DLH442 KDFW-KLAX
Flight info
| Callsign | DLH442 |
|---|---|
| Flight time | N/A |
| Altitude | 40000 |
| Route | KATZZ2 BRHMA DCT CNX DCT ONM DCT SJN DCT DRK J231 HIPPI DCT GABBL HLYWD1 |
| Aircraft | B748/H-SDE3FGHIM1M2RWXY/LB1 |
Departure
| Time | 2026-05-06 13:41 |
|---|---|
| Airport | Dallas Fort Worth International Airport (KDFW) |
Arrival
| Time | N/A |
|---|---|
| Airport | Los Angeles International Airport (KLAX) |
| Time | Latitude | Longitude | Altitude | Speed | Heading |
|---|---|---|---|---|---|
| 2026-05-06 13:16 | 32.89894 | -97.04583 | 618 ft | 0 kts | 90° |
| 2026-05-06 13:26 | 32.89894 | -97.04591 | 624 ft | 2 kts | 90° |
| 2026-05-06 13:26 | 32.89894 | -97.04619 | 619 ft | 3 kts | 90° |
| 2026-05-06 13:27 | 32.89895 | -97.04647 | 621 ft | 3 kts | 117° |
| 2026-05-06 13:27 | 32.89912 | -97.04667 | 624 ft | 3 kts | 173° |
| 2026-05-06 13:27 | 32.89936 | -97.04667 | 624 ft | 3 kts | 181° |
| 2026-05-06 13:27 | 32.89942 | -97.04667 | 624 ft | 0 kts | 181° |
| 2026-05-06 13:32 | 32.89941 | -97.04667 | 624 ft | 1 kts | 181° |
| 2026-05-06 13:32 | 32.89928 | -97.04667 | 621 ft | 3 kts | 181° |
| 2026-05-06 13:32 | 32.89896 | -97.04668 | 621 ft | 6 kts | 181° |
| 2026-05-06 13:33 | 32.89846 | -97.04670 | 616 ft | 8 kts | 181° |
| 2026-05-06 13:33 | 32.89800 | -97.04681 | 619 ft | 4 kts | 217° |
| 2026-05-06 13:33 | 32.89783 | -97.04710 | 621 ft | 5 kts | 238° |
| 2026-05-06 13:33 | 32.89764 | -97.04758 | 611 ft | 7 kts | 254° |
| 2026-05-06 13:34 | 32.89759 | -97.04824 | 622 ft | 9 kts | 268° |
| 2026-05-06 13:34 | 32.89736 | -97.04879 | 622 ft | 6 kts | 213° |
| 2026-05-06 13:34 | 32.89695 | -97.04888 | 621 ft | 8 kts | 184° |
| 2026-05-06 13:34 | 32.89629 | -97.04889 | 616 ft | 11 kts | 181° |
| 2026-05-06 13:35 | 32.89539 | -97.04890 | 616 ft | 15 kts | 180° |
| 2026-05-06 13:35 | 32.89424 | -97.04892 | 620 ft | 18 kts | 181° |
| 2026-05-06 13:35 | 32.89287 | -97.04892 | 616 ft | 21 kts | 180° |
| 2026-05-06 13:35 | 32.89139 | -97.04892 | 615 ft | 22 kts | 180° |
| 2026-05-06 13:36 | 32.88982 | -97.04893 | 621 ft | 23 kts | 180° |
| 2026-05-06 13:36 | 32.88815 | -97.04894 | 616 ft | 25 kts | 180° |
| 2026-05-06 13:36 | 32.88637 | -97.04895 | 621 ft | 26 kts | 180° |
| 2026-05-06 13:36 | 32.88449 | -97.04896 | 622 ft | 28 kts | 180° |
| 2026-05-06 13:37 | 32.88252 | -97.04897 | 617 ft | 29 kts | 180° |
| 2026-05-06 13:37 | 32.88055 | -97.04899 | 621 ft | 25 kts | 180° |
| 2026-05-06 13:37 | 32.87926 | -97.04903 | 612 ft | 6 kts | 201° |
| 2026-05-06 13:37 | 32.87916 | -97.04921 | 621 ft | 2 kts | 253° |
| 2026-05-06 13:38 | 32.87914 | -97.04938 | 620 ft | 2 kts | 263° |
| 2026-05-06 13:38 | 32.87912 | -97.04968 | 613 ft | 5 kts | 269° |
| 2026-05-06 13:38 | 32.87911 | -97.05019 | 615 ft | 8 kts | 269° |
| 2026-05-06 13:38 | 32.87918 | -97.05066 | 624 ft | 5 kts | 297° |
| 2026-05-06 13:39 | 32.87945 | -97.05092 | 614 ft | 5 kts | 336° |
| 2026-05-06 13:39 | 32.87971 | -97.05093 | 616 ft | 4 kts | 0° |
| 2026-05-06 13:39 | 32.87972 | -97.05093 | 616 ft | 0 kts | 0° |
| 2026-05-06 13:40 | 32.88093 | -97.05092 | 615 ft | 60 kts | 0° |
| 2026-05-06 13:40 | 32.88837 | -97.05089 | 615 ft | 151 kts | 0° |
| 2026-05-06 13:40 | 32.90076 | -97.05034 | 1160 ft | 189 kts | 2° |
| 2026-05-06 13:41 | 32.90968 | -97.04986 | 1886 ft | 203 kts | 2° |
| 2026-05-06 13:41 | 32.93060 | -97.05025 | 2874 ft | 239 kts | 354° |
| 2026-05-06 13:41 | 32.94154 | -97.05324 | 3375 ft | 248 kts | 341° |
| 2026-05-06 13:41 | 32.96383 | -97.06232 | 4324 ft | 262 kts | 338° |
| 2026-05-06 13:42 | 32.97544 | -97.06710 | 4840 ft | 270 kts | 337° |
| 2026-05-06 13:42 | 32.99245 | -97.07659 | 5555 ft | 268 kts | 317° |
| 2026-05-06 13:42 | 33.00435 | -97.09323 | 6322 ft | 264 kts | 295° |
| 2026-05-06 13:42 | 33.00963 | -97.11397 | 7050 ft | 262 kts | 272° |
| 2026-05-06 13:43 | 33.00908 | -97.13566 | 7801 ft | 264 kts | 266° |
| 2026-05-06 13:43 | 33.00768 | -97.15740 | 8565 ft | 262 kts | 265° |
| 2026-05-06 13:43 | 33.00573 | -97.17896 | 9324 ft | 262 kts | 262° |
| 2026-05-06 13:43 | 33.00282 | -97.20856 | 9987 ft | 288 kts | 263° |
| 2026-05-06 13:44 | 33.00127 | -97.22526 | 10017 ft | 314 kts | 262° |
| 2026-05-06 13:44 | 32.99472 | -97.25156 | 10040 ft | 352 kts | 246° |
| 2026-05-06 13:44 | 32.98301 | -97.27881 | 10039 ft | 383 kts | 243° |
| 2026-05-06 13:44 | 32.97034 | -97.30627 | 10288 ft | 382 kts | 242° |
| 2026-05-06 13:45 | 32.95750 | -97.33437 | 10804 ft | 390 kts | 243° |
| 2026-05-06 13:45 | 32.93219 | -97.39169 | 11795 ft | 392 kts | 242° |
| 2026-05-06 13:45 | 32.91929 | -97.42042 | 12308 ft | 394 kts | 242° |
| 2026-05-06 13:46 | 32.90636 | -97.44909 | 12791 ft | 394 kts | 241° |
| 2026-05-06 13:46 | 32.89342 | -97.47795 | 13316 ft | 395 kts | 241° |
| 2026-05-06 13:46 | 32.88054 | -97.50675 | 13812 ft | 396 kts | 241° |
| 2026-05-06 13:46 | 32.86756 | -97.53568 | 14277 ft | 396 kts | 241° |
| 2026-05-06 13:47 | 32.85457 | -97.56456 | 14752 ft | 397 kts | 241° |
| 2026-05-06 13:47 | 32.84155 | -97.59350 | 15220 ft | 397 kts | 241° |
| 2026-05-06 13:47 | 32.82849 | -97.62253 | 15706 ft | 399 kts | 242° |
| 2026-05-06 13:47 | 32.81556 | -97.65123 | 16186 ft | 399 kts | 242° |
| 2026-05-06 13:48 | 32.80384 | -97.68158 | 16691 ft | 401 kts | 249° |
| 2026-05-06 13:48 | 32.79601 | -97.71347 | 17195 ft | 403 kts | 256° |
| 2026-05-06 13:48 | 32.79220 | -97.74643 | 17711 ft | 407 kts | 263° |
| 2026-05-06 13:48 | 32.79252 | -97.78024 | 18241 ft | 411 kts | 271° |
| 2026-05-06 13:49 | 32.79705 | -97.81354 | 18688 ft | 418 kts | 278° |
| 2026-05-06 13:49 | 32.80478 | -97.84682 | 19157 ft | 419 kts | 279° |
| 2026-05-06 13:49 | 32.81247 | -97.87991 | 19627 ft | 422 kts | 279° |
| 2026-05-06 13:49 | 32.82040 | -97.91396 | 20117 ft | 424 kts | 279° |
| 2026-05-06 13:50 | 32.82821 | -97.94734 | 20578 ft | 425 kts | 279° |
| 2026-05-06 13:50 | 32.83614 | -97.98126 | 21085 ft | 427 kts | 279° |
| 2026-05-06 13:50 | 32.84407 | -98.01534 | 21586 ft | 428 kts | 279° |
| 2026-05-06 13:50 | 32.85144 | -98.04716 | 22050 ft | 430 kts | 279° |
| 2026-05-06 13:51 | 32.85940 | -98.08145 | 22569 ft | 433 kts | 279° |
| 2026-05-06 13:51 | 32.86744 | -98.11609 | 23080 ft | 435 kts | 279° |
| 2026-05-06 13:51 | 32.87548 | -98.15084 | 23608 ft | 437 kts | 278° |
| 2026-05-06 13:51 | 32.88357 | -98.18580 | 24056 ft | 439 kts | 278° |
| 2026-05-06 13:52 | 32.89167 | -98.22091 | 24537 ft | 440 kts | 278° |
| 2026-05-06 13:52 | 32.89978 | -98.25602 | 24990 ft | 441 kts | 278° |
| 2026-05-06 13:52 | 32.90788 | -98.29106 | 25450 ft | 438 kts | 278° |
| 2026-05-06 13:52 | 32.91594 | -98.32599 | 25916 ft | 437 kts | 278° |
| 2026-05-06 13:53 | 32.92397 | -98.36087 | 26400 ft | 437 kts | 278° |
| 2026-05-06 13:53 | 32.93197 | -98.39570 | 26882 ft | 434 kts | 278° |
| 2026-05-06 13:53 | 32.93992 | -98.43028 | 27368 ft | 433 kts | 278° |
| 2026-05-06 13:53 | 32.94781 | -98.46467 | 27863 ft | 431 kts | 278° |
| 2026-05-06 13:54 | 32.95567 | -98.49902 | 28383 ft | 427 kts | 278° |
| 2026-05-06 13:54 | 32.96347 | -98.53316 | 28876 ft | 429 kts | 278° |
| 2026-05-06 13:54 | 32.97130 | -98.56755 | 29412 ft | 431 kts | 278° |
| 2026-05-06 13:54 | 32.97883 | -98.60061 | 29930 ft | 434 kts | 278° |
| 2026-05-06 13:55 | 32.98675 | -98.63532 | 30407 ft | 436 kts | 278° |
| 2026-05-06 13:55 | 32.99469 | -98.67025 | 30870 ft | 437 kts | 277° |
| 2026-05-06 13:55 | 33.00262 | -98.70519 | 31344 ft | 438 kts | 277° |
| 2026-05-06 13:55 | 33.01058 | -98.74024 | 31829 ft | 439 kts | 277° |
| 2026-05-06 13:56 | 33.01853 | -98.77535 | 32316 ft | 439 kts | 277° |
| 2026-05-06 13:56 | 33.02647 | -98.81047 | 32801 ft | 439 kts | 277° |
| 2026-05-06 13:56 | 33.03440 | -98.84558 | 33313 ft | 439 kts | 276° |
| 2026-05-06 13:56 | 33.04230 | -98.88059 | 33812 ft | 436 kts | 276° |
| 2026-05-06 13:57 | 33.05016 | -98.91549 | 34291 ft | 434 kts | 276° |
| 2026-05-06 13:57 | 33.05794 | -98.95007 | 34731 ft | 431 kts | 276° |
| 2026-05-06 13:57 | 33.06566 | -98.98447 | 35183 ft | 428 kts | 276° |
| 2026-05-06 13:57 | 33.07332 | -99.01865 | 35654 ft | 426 kts | 276° |
| 2026-05-06 13:58 | 33.08092 | -99.05260 | 36116 ft | 423 kts | 276° |
| 2026-05-06 13:58 | 33.08849 | -99.08644 | 36593 ft | 421 kts | 276° |
| 2026-05-06 13:58 | 33.09599 | -99.11996 | 37098 ft | 416 kts | 276° |
| 2026-05-06 13:58 | 33.10340 | -99.15320 | 37585 ft | 413 kts | 276° |
| 2026-05-06 13:59 | 33.11071 | -99.18610 | 38100 ft | 410 kts | 276° |
| 2026-05-06 13:59 | 33.11800 | -99.21886 | 38634 ft | 406 kts | 276° |
| 2026-05-06 13:59 | 33.12519 | -99.25121 | 39050 ft | 402 kts | 276° |
| 2026-05-06 13:59 | 33.13231 | -99.28330 | 39492 ft | 398 kts | 276° |
| 2026-05-06 14:00 | 33.13934 | -99.31504 | 39887 ft | 394 kts | 276° |
| 2026-05-06 14:00 | 33.14631 | -99.34670 | 39984 ft | 397 kts | 276° |
| 2026-05-06 14:00 | 33.16049 | -99.41108 | 39988 ft | 408 kts | 276° |
| 2026-05-06 14:01 | 33.17491 | -99.47634 | 40003 ft | 410 kts | 276° |